createdAt,value
2018-03-29T00:01:24.859Z,97698.72
2018-03-29T00:03:52.448Z,97696.28
2018-03-29T00:06:20.129Z,97709.88
2018-03-29T00:08:47.641Z,97716.94
2018-03-29T00:11:15.128Z,97729.16
2018-03-29T00:13:42.631Z,97724.14
2018-03-29T00:16:10.118Z,97726.57
2018-03-29T00:18:37.707Z,97728.77
2018-03-29T00:21:05.192Z,97730.02
2018-03-29T00:23:32.699Z,97729.98
2018-03-29T00:26:00.199Z,97738.63
2018-03-29T00:28:27.735Z,97741.28
2018-03-29T00:30:55.211Z,97749.50
2018-03-29T00:33:22.751Z,97752.58
2018-03-29T00:35:50.229Z,97747.75
2018-03-29T00:38:17.723Z,97746.19
2018-03-29T00:40:45.243Z,97740.61
2018-03-29T00:43:12.787Z,97747.86
2018-03-29T00:45:40.274Z,97751.80
2018-03-29T00:48:07.792Z,97747.67
2018-03-29T00:50:35.281Z,97759.64
2018-03-29T00:53:14.788Z,97749.00
2018-03-29T00:55:42.271Z,97748.11
2018-03-29T00:58:09.791Z,97752.23
2018-03-29T01:00:37.339Z,97752.34
2018-03-29T01:03:04.825Z,97750.09
2018-03-29T01:05:32.340Z,97756.92
2018-03-29T01:08:00.255Z,97760.15
2018-03-29T01:10:28.025Z,97758.89
2018-03-29T01:12:55.580Z,97762.50
2018-03-29T01:15:23.087Z,97761.55
2018-03-29T01:17:50.577Z,97758.82
2018-03-29T01:20:18.087Z,97762.88
2018-03-29T01:22:45.567Z,97761.48
2018-03-29T01:25:13.100Z,97764.48
2018-03-29T01:27:40.591Z,97762.39
2018-03-29T01:30:08.099Z,97761.48
2018-03-29T01:32:39.410Z,97763.11
2018-03-29T01:35:06.923Z,97757.84
2018-03-29T01:37:34.527Z,97754.91
2018-03-29T01:40:02.177Z,97758.41
2018-03-29T01:42:29.663Z,97761.06
2018-03-29T01:44:57.163Z,97753.02
2018-03-29T01:47:24.639Z,97754.92
2018-03-29T01:49:52.151Z,97752.39
2018-03-29T01:52:19.630Z,97750.15
2018-03-29T01:54:47.163Z,97753.41
2018-03-29T01:57:14.659Z,97752.09
2018-03-29T01:59:42.177Z,97755.89
2018-03-29T02:02:09.691Z,97753.65
2018-03-29T02:04:37.211Z,97760.24
2018-03-29T02:07:04.693Z,97756.63
2018-03-29T02:09:32.175Z,97749.26
2018-03-29T02:11:59.709Z,97755.18
2018-03-29T02:14:27.219Z,97753.50
2018-03-29T02:16:54.715Z,97761.31
2018-03-29T02:19:22.198Z,97764.16
2018-03-29T02:21:49.712Z,97767.72
2018-03-29T02:24:17.215Z,97774.37
2018-03-29T02:26:44.734Z,97769.81
2018-03-29T02:29:12.214Z,97775.55
2018-03-29T02:31:39.722Z,97776.12
2018-03-29T02:34:07.220Z,97774.55
2018-03-29T02:36:34.779Z,97769.45
2018-03-29T02:39:02.339Z,97765.37
2018-03-29T02:41:29.846Z,97777.56
2018-03-29T02:43:57.335Z,97773.66
2018-03-29T02:46:24.861Z,97777.64
2018-03-29T02:48:52.353Z,97778.66
2018-03-29T02:51:19.931Z,97781.31
2018-03-29T02:53:47.492Z,97768.09
2018-03-29T02:56:15.000Z,97762.47
2018-03-29T02:58:42.475Z,97759.44
2018-03-29T03:01:09.984Z,97758.17
2018-03-29T03:03:37.469Z,97754.38
2018-03-29T03:06:04.984Z,97754.55
2018-03-29T03:08:32.545Z,97755.11
2018-03-29T03:11:00.056Z,97749.87
2018-03-29T03:13:27.565Z,97744.84
2018-03-29T03:15:55.071Z,97738.21
2018-03-29T03:18:22.542Z,97744.05
2018-03-29T03:20:50.331Z,97754.47
2018-03-29T03:23:17.926Z,97760.02
2018-03-29T03:25:45.571Z,97759.76
2018-03-29T03:28:13.072Z,97766.30
2018-03-29T03:30:40.556Z,97766.39
2018-03-29T03:33:08.068Z,97770.69
2018-03-29T03:35:35.572Z,97765.30
2018-03-29T03:38:03.079Z,97769.36
2018-03-29T03:40:30.588Z,97761.13
2018-03-29T03:42:58.095Z,97768.58
2018-03-29T03:45:25.583Z,97766.09
2018-03-29T03:47:53.085Z,97767.64
2018-03-29T03:50:20.626Z,97766.88
2018-03-29T03:52:48.135Z,97771.45
2018-03-29T03:55:15.663Z,97769.41
2018-03-29T03:57:43.231Z,97770.07
2018-03-29T04:00:10.717Z,97770.18
2018-03-29T04:02:38.248Z,97775.81
2018-03-29T04:05:05.802Z,97773.20
2018-03-29T04:07:33.314Z,97766.98
2018-03-29T04:10:00.860Z,97767.31
2018-03-29T04:12:28.368Z,97769.91
2018-03-29T04:14:55.851Z,97783.06
2018-03-29T04:17:23.373Z,97783.98
2018-03-29T04:19:50.868Z,97779.69
2018-03-29T04:22:18.370Z,97781.52
2018-03-29T04:24:45.856Z,97789.17
2018-03-29T04:27:13.363Z,97792.06
2018-03-29T04:29:40.857Z,97783.98
2018-03-29T04:32:08.368Z,97788.22
2018-03-29T04:34:35.853Z,97789.47
2018-03-29T04:37:03.429Z,97800.45
2018-03-29T04:39:30.915Z,97801.08
2018-03-29T04:41:58.426Z,97807.41
2018-03-29T04:44:26.035Z,97808.69
2018-03-29T04:46:53.557Z,97806.87
2018-03-29T04:49:21.039Z,97812.68
2018-03-29T04:51:48.539Z,97810.37
2018-03-29T04:54:16.090Z,97810.44
2018-03-29T04:56:43.596Z,97810.55
2018-03-29T04:59:11.087Z,97800.09
2018-03-29T05:01:38.678Z,97800.34
2018-03-29T05:04:06.221Z,97804.09
2018-03-29T05:06:33.707Z,97805.17
2018-03-29T05:09:01.227Z,97807.58
2018-03-29T05:11:28.711Z,97814.40
2018-03-29T05:13:56.216Z,97816.53
2018-03-29T05:16:23.721Z,97814.40
2018-03-29T05:18:51.231Z,97820.45
2018-03-29T05:21:18.715Z,97825.20
2018-03-29T05:23:46.239Z,97827.09
2018-03-29T05:26:13.719Z,97822.48
2018-03-29T05:28:41.237Z,97828.28
2018-03-29T05:31:08.754Z,97821.64
2018-03-29T05:33:36.259Z,97828.59
2018-03-29T05:36:03.752Z,97812.41
2018-03-29T05:38:31.331Z,97809.75
2018-03-29T05:40:58.813Z,97803.95
2018-03-29T05:43:26.336Z,97801.02
2018-03-29T05:45:53.819Z,97796.42
2018-03-29T05:48:21.368Z,97798.00
2018-03-29T05:50:48.854Z,97801.11
2018-03-29T05:53:16.365Z,97806.87
2018-03-29T05:55:43.852Z,97802.05
2018-03-29T05:58:11.387Z,97798.34
2018-03-29T06:00:38.964Z,97794.49
2018-03-29T06:03:06.600Z,97804.63
2018-03-29T06:05:34.087Z,97803.25
2018-03-29T06:08:01.650Z,97816.34
2018-03-29T06:10:29.213Z,97816.16
2018-03-29T06:12:56.724Z,97811.25
2018-03-29T06:15:24.231Z,97816.09
2018-03-29T06:17:57.310Z,97816.83
2018-03-29T06:20:24.824Z,97820.77
2018-03-29T06:22:52.344Z,97825.06
2018-03-29T06:25:19.868Z,97826.83
2018-03-29T06:27:47.376Z,97826.33
2018-03-29T06:30:14.883Z,97829.61
2018-03-29T06:32:42.391Z,97823.53
2018-03-29T06:35:09.895Z,97823.77
2018-03-29T06:37:37.383Z,97829.06
2018-03-29T06:40:04.884Z,97827.70
2018-03-29T06:42:32.396Z,97823.84
2018-03-29T06:45:01.906Z,97816.53
2018-03-29T06:47:29.472Z,97814.90
2018-03-29T06:49:56.987Z,97812.50
2018-03-29T06:52:24.472Z,97806.75
2018-03-29T06:54:52.014Z,97807.33
2018-03-29T06:57:19.605Z,97812.61
2018-03-29T06:59:47.135Z,97806.36
2018-03-29T07:02:14.620Z,97803.66
2018-03-29T07:04:42.179Z,97809.86
2018-03-29T07:07:09.668Z,97822.22
2018-03-29T07:09:37.199Z,97819.48
2018-03-29T07:12:04.688Z,97825.62
2018-03-29T07:14:32.231Z,97819.05
2018-03-29T07:16:59.795Z,97813.52
2018-03-29T07:19:27.324Z,97815.15
2018-03-29T07:21:54.807Z,97814.53
2018-03-29T07:24:22.352Z,97821.27
2018-03-29T07:26:49.933Z,97828.61
2018-03-29T07:29:17.455Z,97828.48
2018-03-29T07:31:44.940Z,97825.56
2018-03-29T07:34:12.452Z,97832.29
2018-03-29T07:36:39.937Z,97829.86
2018-03-29T07:39:07.452Z,97838.01
2018-03-29T07:41:34.931Z,97843.64
2018-03-29T07:44:02.472Z,97840.85
2018-03-29T07:46:29.965Z,97847.50
2018-03-29T07:48:57.466Z,97843.66
2018-03-29T07:51:25.013Z,97837.61
2018-03-29T07:53:52.523Z,97839.59
2018-03-29T07:56:20.010Z,97837.58
2018-03-29T07:58:47.563Z,97837.21
2018-03-29T08:01:15.055Z,97837.70
2018-03-29T08:03:42.558Z,97827.44
2018-03-29T08:06:10.064Z,97825.16
2018-03-29T08:08:37.652Z,97829.50
2018-03-29T08:11:05.151Z,97830.24
2018-03-29T08:13:32.648Z,97827.44
2018-03-29T08:16:00.213Z,97818.20
2018-03-29T08:18:27.725Z,97814.58
2018-03-29T08:20:55.244Z,97808.55
2018-03-29T08:23:22.729Z,97809.33
2018-03-29T08:25:50.253Z,97801.75
2018-03-29T08:28:17.787Z,97797.34
2018-03-29T08:30:45.303Z,97802.39
2018-03-29T08:33:12.910Z,97805.16
2018-03-29T08:35:40.424Z,97797.38
2018-03-29T08:38:07.913Z,97794.62
2018-03-29T08:40:35.429Z,97793.86
2018-03-29T08:43:02.923Z,97794.39
2018-03-29T08:45:30.427Z,97799.98
2018-03-29T08:47:57.949Z,97808.12
2018-03-29T08:50:25.458Z,97810.19
2018-03-29T08:52:52.967Z,97806.66
2018-03-29T08:55:20.520Z,97809.44
2018-03-29T08:57:48.011Z,97815.81
2018-03-29T09:00:15.554Z,97810.38
2018-03-29T09:02:43.058Z,97817.06
2018-03-29T09:05:10.577Z,97816.47
2018-03-29T09:07:38.063Z,97830.91
2018-03-29T09:10:05.580Z,97825.77
2018-03-29T09:12:33.060Z,97816.03
2018-03-29T09:15:00.578Z,97816.88
2018-03-29T09:17:28.079Z,97827.97
2018-03-29T09:19:55.583Z,97832.50
2018-03-29T09:22:23.070Z,97832.20
2018-03-29T09:24:50.739Z,97822.75
2018-03-29T09:27:18.239Z,97826.27
2018-03-29T09:29:45.766Z,97821.02
2018-03-29T09:32:13.247Z,97821.77
2018-03-29T09:34:40.768Z,97818.93
2018-03-29T09:37:08.279Z,97821.22
2018-03-29T09:39:35.796Z,97812.59
2018-03-29T09:42:03.321Z,97814.44
2018-03-29T09:44:30.807Z,97819.35
2018-03-29T09:46:58.367Z,97819.20
2018-03-29T09:49:25.857Z,97817.67
2018-03-29T09:51:53.383Z,97812.45
2018-03-29T09:54:20.919Z,97815.09
2018-03-29T09:56:48.460Z,97802.82
2018-03-29T09:59:15.946Z,97813.09
2018-03-29T10:01:44.352Z,97814.30
2018-03-29T10:04:12.779Z,97811.97
2018-03-29T10:06:52.167Z,97823.66
2018-03-29T10:09:19.652Z,97812.75
2018-03-29T10:11:47.172Z,97811.33
2018-03-29T10:14:14.750Z,97812.05
2018-03-29T10:16:42.266Z,97814.88
2018-03-29T10:19:09.866Z,97821.45
2018-03-29T10:21:37.428Z,97823.01
2018-03-29T10:24:05.899Z,97824.89
2018-03-29T10:26:33.464Z,97817.09
2018-03-29T10:29:01.015Z,97817.09
2018-03-29T10:31:28.525Z,97815.26
2018-03-29T10:33:56.020Z,97812.47
2018-03-29T10:36:23.555Z,97808.53
2018-03-29T10:38:51.040Z,97804.66
2018-03-29T10:41:18.572Z,97804.05
2018-03-29T10:43:46.072Z,97809.86
2018-03-29T10:46:13.579Z,97804.65
2018-03-29T10:48:41.066Z,97802.33
2018-03-29T10:51:08.612Z,97795.64
2018-03-29T10:53:36.195Z,97804.71
2018-03-29T10:56:03.760Z,97802.05
2018-03-29T10:58:31.260Z,97799.07
2018-03-29T11:00:58.772Z,97800.24
2018-03-29T11:03:26.263Z,97802.33
2018-03-29T11:05:53.832Z,97807.29
2018-03-29T11:08:21.323Z,97810.77
2018-03-29T11:10:48.836Z,97805.95
2018-03-29T11:13:16.599Z,97797.33
2018-03-29T11:15:44.103Z,97791.70
2018-03-29T11:18:11.610Z,97797.47
2018-03-29T11:20:39.150Z,97790.90
2018-03-29T11:23:06.666Z,97775.84
2018-03-29T11:25:34.168Z,97790.59
2018-03-29T11:28:01.675Z,97789.33
2018-03-29T11:30:29.184Z,97788.06
2018-03-29T11:32:56.711Z,97788.33
2018-03-29T11:35:24.191Z,97787.98
2018-03-29T11:37:51.741Z,97784.50
2018-03-29T11:40:19.227Z,97788.82
2018-03-29T11:42:46.739Z,97791.58
2018-03-29T11:45:14.231Z,97796.77
2018-03-29T11:47:41.816Z,97793.81
2018-03-29T11:50:09.377Z,97794.39
2018-03-29T11:52:36.915Z,97790.80
2018-03-29T11:55:04.476Z,97796.86
2018-03-29T11:57:32.039Z,97796.89
2018-03-29T11:59:59.519Z,97800.09
2018-03-29T12:02:27.175Z,97802.33
2018-03-29T12:04:54.699Z,97808.88
2018-03-29T12:07:22.398Z,97813.94
2018-03-29T12:09:49.941Z,97816.39
2018-03-29T12:12:17.472Z,97821.80
2018-03-29T12:14:44.985Z,97817.34
2018-03-29T12:17:12.524Z,97813.30
2018-03-29T12:19:40.013Z,97816.14
2018-03-29T12:22:07.546Z,97817.78
2018-03-29T12:24:35.092Z,97823.27
2018-03-29T12:27:02.663Z,97819.27
2018-03-29T12:29:30.159Z,97813.67
2018-03-29T12:31:57.694Z,97815.07
2018-03-29T12:34:25.222Z,97812.39
2018-03-29T12:36:52.861Z,97811.17
2018-03-29T12:39:20.352Z,97816.60
2018-03-29T12:41:47.855Z,97814.11
2018-03-29T12:44:15.340Z,97815.49
2018-03-29T12:46:42.815Z,97807.94
2018-03-29T12:49:10.384Z,97802.69
2018-03-29T12:51:37.945Z,97793.81
2018-03-29T12:54:05.471Z,97787.27
2018-03-29T12:56:44.671Z,97790.67
2018-03-29T12:59:12.188Z,97790.37
2018-03-29T13:01:39.756Z,97794.67
2018-03-29T13:04:07.311Z,97800.31
2018-03-29T13:06:34.804Z,97798.95
2018-03-29T13:09:02.326Z,97796.56
2018-03-29T13:11:29.820Z,97788.77
2018-03-29T13:13:57.340Z,97779.41
2018-03-29T13:16:24.829Z,97774.49
2018-03-29T13:18:52.347Z,97780.45
2018-03-29T13:21:19.843Z,97772.59
2018-03-29T13:23:47.396Z,97776.25
2018-03-29T13:26:14.939Z,97775.87
2018-03-29T13:28:42.464Z,97772.06
2018-03-29T13:31:10.154Z,97774.62
2018-03-29T13:33:37.693Z,97778.09
2018-03-29T13:36:05.218Z,97772.88
2018-03-29T13:38:32.752Z,97775.75
2018-03-29T13:41:00.239Z,97763.09
2018-03-29T13:43:27.772Z,97760.02
2018-03-29T13:45:55.269Z,97758.45
2018-03-29T13:48:22.796Z,97758.13
2018-03-29T13:50:50.276Z,97761.70
2018-03-29T13:53:17.805Z,97759.64
2018-03-29T13:55:45.419Z,97766.71
2018-03-29T13:58:12.928Z,97765.86
2018-03-29T14:00:40.406Z,97767.03
2018-03-29T14:03:07.922Z,97767.94
2018-03-29T14:05:35.435Z,97767.75
2018-03-29T14:08:02.945Z,97773.84
2018-03-29T14:10:30.525Z,97766.31
2018-03-29T14:12:58.010Z,97770.02
2018-03-29T14:15:26.475Z,97769.36
2018-03-29T14:17:54.241Z,97767.03
2018-03-29T14:20:22.059Z,97771.27
2018-03-29T14:22:49.872Z,97758.46
2018-03-29T14:25:17.452Z,97761.91
2018-03-29T14:27:44.995Z,97755.42
2018-03-29T14:30:12.758Z,97745.25
2018-03-29T14:32:40.469Z,97743.18
2018-03-29T14:35:08.134Z,97741.42
2018-03-29T14:37:35.692Z,97741.14
2018-03-29T14:40:03.507Z,97737.69
2018-03-29T14:42:31.274Z,97730.49
2018-03-29T14:44:58.936Z,97731.82
2018-03-29T14:47:26.544Z,97737.35
2018-03-29T14:49:54.263Z,97739.83
2018-03-29T14:52:22.024Z,97731.92
2018-03-29T14:54:49.791Z,97725.70
2018-03-29T14:57:17.554Z,97726.61
2018-03-29T14:59:45.317Z,97730.50
2018-03-29T15:02:12.992Z,97712.34
2018-03-29T15:04:40.693Z,97708.37
2018-03-29T15:07:08.253Z,97709.01
2018-03-29T15:09:35.772Z,97709.48
2018-03-29T15:12:03.303Z,97718.60
2018-03-29T15:14:30.837Z,97705.96
2018-03-29T15:16:58.332Z,97696.97
2018-03-29T15:19:25.880Z,97692.63
2018-03-29T15:21:53.367Z,97692.30
2018-03-29T15:24:20.911Z,97693.19
2018-03-29T15:26:48.520Z,97697.17
2018-03-29T15:29:16.072Z,97696.35
2018-03-29T15:31:45.277Z,97695.41
2018-03-29T15:34:16.005Z,97694.42
2018-03-29T15:36:44.427Z,97692.60
2018-03-29T15:39:14.255Z,97692.13
2018-03-29T15:41:42.887Z,97695.97
2018-03-29T15:44:10.522Z,97699.56
2018-03-29T15:46:38.022Z,97709.02
2018-03-29T15:49:05.545Z,97701.63
2018-03-29T15:51:33.028Z,97713.59
2018-03-29T15:54:00.558Z,97708.89
2018-03-29T15:56:28.091Z,97713.98
2018-03-29T15:58:55.578Z,97705.19
2018-03-29T16:01:23.144Z,97712.47
2018-03-29T16:03:50.712Z,97714.62
2018-03-29T16:06:18.220Z,97710.98
2018-03-29T16:08:45.707Z,97711.23
2018-03-29T16:11:13.277Z,97720.13
2018-03-29T16:13:40.832Z,97718.82
2018-03-29T16:16:08.400Z,97719.74
2018-03-29T16:18:35.951Z,97715.99
2018-03-29T16:21:03.515Z,97713.02
2018-03-29T16:23:31.000Z,97710.77
2018-03-29T16:25:58.528Z,97709.98
2018-03-29T16:28:26.020Z,97708.41
2018-03-29T16:30:53.541Z,97703.26
2018-03-29T16:33:21.068Z,97708.28
2018-03-29T16:35:48.679Z,97705.69
2018-03-29T16:38:16.171Z,97703.88
2018-03-29T16:40:43.676Z,97698.57
2018-03-29T16:43:11.196Z,97698.34
2018-03-29T16:45:38.699Z,97702.48
2018-03-29T16:48:06.181Z,97703.99
2018-03-29T16:50:33.803Z,97701.11
2018-03-29T16:53:01.363Z,97694.61
2018-03-29T16:55:28.875Z,97699.92
2018-03-29T16:57:56.401Z,97688.59
2018-03-29T17:00:23.911Z,97690.38
2018-03-29T17:02:51.408Z,97693.06
2018-03-29T17:05:18.919Z,97682.91
2018-03-29T17:07:46.413Z,97681.52
2018-03-29T17:10:13.963Z,97679.27
2018-03-29T17:12:41.448Z,97672.14
2018-03-29T17:15:09.003Z,97674.26
2018-03-29T17:17:36.498Z,97676.87
2018-03-29T17:20:04.032Z,97670.52
2018-03-29T17:22:31.544Z,97679.04
2018-03-29T17:24:59.051Z,97686.52
2018-03-29T17:27:26.614Z,97690.75
2018-03-29T17:29:54.112Z,97690.37
2018-03-29T17:32:21.612Z,97692.09
2018-03-29T17:34:49.100Z,97698.77
2018-03-29T17:37:16.657Z,97701.30
2018-03-29T17:39:44.207Z,97708.91
2018-03-29T17:42:11.707Z,97707.98
2018-03-29T17:44:39.217Z,97705.59
2018-03-29T17:47:06.751Z,97710.58
2018-03-29T17:49:34.230Z,97704.89
2018-03-29T17:52:01.816Z,97695.57
2018-03-29T17:54:29.361Z,97700.57
2018-03-29T17:56:56.965Z,97698.48
2018-03-29T17:59:24.467Z,97693.67
2018-03-29T18:01:52.872Z,97697.70
2018-03-29T18:04:20.363Z,97694.56
2018-03-29T18:06:47.883Z,97700.64
2018-03-29T18:09:15.432Z,97705.24
2018-03-29T18:11:42.933Z,97705.05
2018-03-29T18:14:10.408Z,97700.83
2018-03-29T18:16:37.914Z,97711.44
2018-03-29T18:19:05.439Z,97712.58
2018-03-29T18:21:32.949Z,97712.69
2018-03-29T18:24:00.510Z,97712.23
2018-03-29T18:26:28.091Z,97712.41
2018-03-29T18:28:55.608Z,97714.53
2018-03-29T18:31:23.146Z,97715.19
2018-03-29T18:33:50.699Z,97713.12
2018-03-29T18:36:18.183Z,97713.02
2018-03-29T18:38:45.707Z,97713.97
2018-03-29T18:41:13.187Z,97714.59
2018-03-29T18:43:40.860Z,97714.54
2018-03-29T18:46:08.348Z,97717.48
2018-03-29T18:48:35.900Z,97710.83
2018-03-29T18:51:03.418Z,97714.70
2018-03-29T18:53:30.931Z,97718.45
2018-03-29T18:55:58.448Z,97725.73
2018-03-29T18:58:25.954Z,97725.57
2018-03-29T19:00:53.451Z,97719.47
2018-03-29T19:03:21.057Z,97721.92
2018-03-29T19:05:48.565Z,97729.82
2018-03-29T19:08:16.096Z,97736.13
2018-03-29T19:10:43.619Z,97746.78
2018-03-29T19:13:11.144Z,97741.03
2018-03-29T19:15:38.637Z,97745.97
2018-03-29T19:18:06.323Z,97740.62
2018-03-29T19:20:33.932Z,97749.20
2018-03-29T19:23:01.456Z,97750.30
2018-03-29T19:25:28.966Z,97745.77
2018-03-29T19:27:56.470Z,97744.75
2018-03-29T19:30:23.972Z,97740.80
2018-03-29T19:32:51.471Z,97731.75
2018-03-29T19:35:19.013Z,97736.52
2018-03-29T19:37:46.520Z,97734.65
2018-03-29T19:40:14.027Z,97735.44
2018-03-29T19:42:41.516Z,97733.45
2018-03-29T19:45:09.035Z,97738.14
2018-03-29T19:47:36.588Z,97734.00
2018-03-29T19:50:04.100Z,97740.98
2018-03-29T19:52:31.594Z,97735.47
2018-03-29T19:54:59.109Z,97743.86
2018-03-29T19:57:26.614Z,97744.10
2018-03-29T19:59:54.157Z,97741.13
2018-03-29T20:02:21.656Z,97744.59
2018-03-29T20:04:49.155Z,97746.27
2018-03-29T20:07:16.644Z,97735.92
2018-03-29T20:09:44.192Z,97735.86
2018-03-29T20:12:11.783Z,97731.73
2018-03-29T20:14:39.288Z,97729.50
2018-03-29T20:17:06.773Z,97737.32
2018-03-29T20:19:34.287Z,97737.98
2018-03-29T20:22:01.841Z,97741.91
2018-03-29T20:24:29.390Z,97735.05
2018-03-29T20:26:56.870Z,97740.68
2018-03-29T20:29:24.396Z,97742.85
2018-03-29T20:31:51.924Z,97751.54
2018-03-29T20:34:19.450Z,97746.67
2018-03-29T20:36:47.089Z,97741.24
2018-03-29T20:39:14.593Z,97748.00
2018-03-29T20:41:42.101Z,97753.66
2018-03-29T20:44:09.620Z,97751.25
2018-03-29T20:46:37.198Z,97759.14
2018-03-29T20:49:04.825Z,97762.52
2018-03-29T20:51:32.368Z,97760.77
2018-03-29T20:53:59.858Z,97763.70
2018-03-29T20:56:27.433Z,97763.00
2018-03-29T20:58:55.332Z,97763.98
2018-03-29T21:01:22.845Z,97756.13
2018-03-29T21:03:50.351Z,97753.96
2018-03-29T21:06:17.907Z,97762.66
2018-03-29T21:08:45.459Z,97756.30
2018-03-29T21:11:12.978Z,97761.66
2018-03-29T21:13:40.470Z,97757.58
2018-03-29T21:16:07.992Z,97750.23
2018-03-29T21:18:35.481Z,97749.11
2018-03-29T21:21:03.047Z,97752.80
2018-03-29T21:23:30.544Z,97749.62
2018-03-29T21:25:58.081Z,97744.25
2018-03-29T21:28:25.619Z,97746.55
2018-03-29T21:30:53.144Z,97746.21
2018-03-29T21:33:20.687Z,97743.61
2018-03-29T21:35:48.251Z,97737.42
2018-03-29T21:38:15.740Z,97740.10
2018-03-29T21:40:43.252Z,97732.97
2018-03-29T21:43:10.750Z,97732.72
2018-03-29T21:45:38.255Z,97729.23
2018-03-29T21:48:05.743Z,97721.70
2018-03-29T21:50:33.256Z,97732.77
2018-03-29T21:53:00.760Z,97732.63
2018-03-29T21:55:28.318Z,97732.79
2018-03-29T21:57:55.806Z,97736.70
2018-03-29T22:00:23.312Z,97735.93
2018-03-29T22:02:50.840Z,97745.33
2018-03-29T22:05:18.427Z,97740.98
2018-03-29T22:07:45.929Z,97733.58
2018-03-29T22:10:13.420Z,97743.23
2018-03-29T22:12:40.942Z,97743.15
2018-03-29T22:15:08.427Z,97742.96
2018-03-29T22:17:35.938Z,97738.72
2018-03-29T22:20:03.419Z,97734.80
2018-03-29T22:22:30.928Z,97722.74
2018-03-29T22:24:58.444Z,97713.30
2018-03-29T22:27:25.975Z,97717.36
2018-03-29T22:29:53.508Z,97715.11
2018-03-29T22:32:21.084Z,97721.09
2018-03-29T22:34:48.589Z,97722.59
2018-03-29T22:37:16.108Z,97715.37
2018-03-29T22:39:43.646Z,97716.13
2018-03-29T22:42:11.158Z,97718.95
2018-03-29T22:44:38.638Z,97720.73
2018-03-29T22:47:07.128Z,97722.30
2018-03-29T22:49:34.699Z,97722.59
2018-03-29T22:52:02.216Z,97725.22
2018-03-29T22:54:29.746Z,97725.06
2018-03-29T22:56:57.286Z,97720.47
2018-03-29T22:59:24.767Z,97710.94
2018-03-29T23:01:52.304Z,97714.05
2018-03-29T23:04:19.784Z,97700.86
2018-03-29T23:06:47.286Z,97688.83
2018-03-29T23:09:14.758Z,97691.08
2018-03-29T23:11:42.276Z,97696.48
2018-03-29T23:14:09.809Z,97688.80
2018-03-29T23:16:37.384Z,97690.44
2018-03-29T23:19:04.901Z,97686.03
2018-03-29T23:21:32.386Z,97688.43
2018-03-29T23:23:59.899Z,97692.93
2018-03-29T23:26:28.451Z,97700.36
2018-03-29T23:28:56.055Z,97695.70
2018-03-29T23:31:23.545Z,97696.72
2018-03-29T23:33:51.076Z,97687.02
2018-03-29T23:36:18.568Z,97688.34
2018-03-29T23:38:46.092Z,97687.78
2018-03-29T23:41:13.570Z,97678.11
2018-03-29T23:43:41.111Z,97680.39
2018-03-29T23:46:08.595Z,97669.36
2018-03-29T23:48:36.119Z,97662.98
2018-03-29T23:51:03.611Z,97659.78
2018-03-29T23:53:31.123Z,97662.43
2018-03-29T23:55:58.622Z,97664.05
2018-03-29T23:58:26.159Z,97666.83
